Leaf River, Illinois
Current Conditions -  °F | °C
As of 2:15 PM on Sunday 23 Nov 2014 (Local Time) from KFEP Reporting Station
Haze Haze  
Wind Chill: 42°   Ceiling: 600
Heat Index: 48°   Visibility: 3mi
Dew Point: 47°   Wind: 14mph
Humidity: 97%   Direction: 130°SE
Pressure: 29.46"   Gusts: NA
Location:  42.13°N, 89.4°W
Report Text: KFEP 232015Z AUTO 13012KT 3SM BR OVC006 09/08 A2946 RMK AO2 T00880083
Loading
Personal Weather Stations






























Interactive Weather Map New forecast layout! Learn more

10-Day Weather Forecast

Advertisements
Track Severe Weather on mobile